createdAt,value
2022-10-04T00:00:46.267Z,82.10
2022-10-04T00:02:21.670Z,82.00
2022-10-04T00:04:12.868Z,82.10
2022-10-04T00:05:51.838Z,82.10
2022-10-04T00:07:41.252Z,82.10
2022-10-04T00:09:17.144Z,81.90
2022-10-04T00:10:49.031Z,82.10
2022-10-04T00:12:46.819Z,82.10
2022-10-04T00:14:38.308Z,82.10
2022-10-04T00:16:21.553Z,82.00
2022-10-04T00:18:37.104Z,82.10
2022-10-04T00:20:53.590Z,81.90
2022-10-04T00:22:27.599Z,81.90
2022-10-04T00:24:21.918Z,82.00
2022-10-04T00:26:22.364Z,81.90
2022-10-04T00:28:25.919Z,81.80
2022-10-04T00:30:03.460Z,81.90
2022-10-04T00:32:08.037Z,81.80
2022-10-04T00:33:43.714Z,81.80
2022-10-04T00:35:27.653Z,81.90
2022-10-04T00:36:59.348Z,81.70
2022-10-04T00:38:31.164Z,81.70
2022-10-04T00:40:18.750Z,81.80
2022-10-04T00:41:50.304Z,81.80
2022-10-04T00:43:44.783Z,81.80
2022-10-04T00:45:34.348Z,81.80
2022-10-04T00:47:14.873Z,81.70
2022-10-04T00:48:50.073Z,81.60
2022-10-04T00:50:30.073Z,81.70
2022-10-04T00:52:15.631Z,81.70
2022-10-04T00:53:53.082Z,81.70
2022-10-04T00:55:56.021Z,81.60
2022-10-04T00:57:33.642Z,81.70
2022-10-04T00:59:32.266Z,81.70
2022-10-04T01:01:04.595Z,81.50
2022-10-04T01:02:47.685Z,81.70
2022-10-04T01:04:33.785Z,81.70
2022-10-04T01:06:08.770Z,81.60
2022-10-04T01:07:48.148Z,81.70
2022-10-04T01:09:21.396Z,81.70
2022-10-04T01:11:03.090Z,81.90
2022-10-04T01:12:41.996Z,81.80
2022-10-04T01:14:21.025Z,81.80
2022-10-04T01:16:14.338Z,81.70
2022-10-04T01:18:10.795Z,81.70
2022-10-04T01:19:52.217Z,81.70
2022-10-04T01:21:29.358Z,81.80
2022-10-04T01:23:03.557Z,81.70
2022-10-04T01:24:37.124Z,81.70
2022-10-04T01:26:30.011Z,81.80
2022-10-04T01:28:01.767Z,81.60
2022-10-04T01:29:33.612Z,81.70
2022-10-04T01:31:05.506Z,81.80
2022-10-04T01:32:38.946Z,81.80
2022-10-04T01:34:17.710Z,81.80
2022-10-04T01:35:49.405Z,81.80
2022-10-04T01:37:21.197Z,81.90
2022-10-04T01:38:53.190Z,81.80
2022-10-04T01:40:25.006Z,81.90
2022-10-04T01:42:00.022Z,81.90
2022-10-04T01:43:37.474Z,82.00
2022-10-04T01:45:22.725Z,81.90
2022-10-04T01:46:56.878Z,81.90
2022-10-04T01:48:34.566Z,81.90
2022-10-04T01:50:15.677Z,81.80
2022-10-04T01:51:56.362Z,81.80
2022-10-04T01:53:30.749Z,81.80
2022-10-04T01:55:12.447Z,81.70
2022-10-04T01:56:59.611Z,81.80
2022-10-04T01:58:39.638Z,81.70
2022-10-04T02:00:13.478Z,81.80
2022-10-04T02:01:50.380Z,81.80
2022-10-04T02:03:36.100Z,81.70
2022-10-04T02:05:13.179Z,81.80
2022-10-04T02:06:46.899Z,81.80
2022-10-04T02:08:25.616Z,81.70
2022-10-04T02:10:01.761Z,81.70
2022-10-04T02:11:36.349Z,81.70
2022-10-04T02:13:17.972Z,81.70
2022-10-04T02:14:53.078Z,81.80
2022-10-04T02:16:26.326Z,81.80
2022-10-04T02:17:58.963Z,81.70
2022-10-04T02:19:37.681Z,81.70
2022-10-04T02:21:10.895Z,81.70
2022-10-04T02:22:44.188Z,81.80
2022-10-04T02:24:16.788Z,81.80
2022-10-04T02:25:48.740Z,81.80
2022-10-04T02:27:25.723Z,81.80
2022-10-04T02:28:57.564Z,81.80
2022-10-04T02:30:35.149Z,81.80
2022-10-04T02:32:27.044Z,81.70
2022-10-04T02:34:00.154Z,81.80
2022-10-04T02:35:37.944Z,81.70
2022-10-04T02:37:09.712Z,81.70
2022-10-04T02:38:48.872Z,81.70
2022-10-04T02:40:30.037Z,81.80
2022-10-04T02:42:12.364Z,81.80
2022-10-04T02:43:52.153Z,81.70
2022-10-04T02:45:53.452Z,81.80
2022-10-04T02:47:29.647Z,81.90
2022-10-04T02:49:24.317Z,81.90
2022-10-04T02:51:02.117Z,81.80
2022-10-04T02:52:48.848Z,81.80
2022-10-04T02:54:46.793Z,81.80
2022-10-04T02:56:19.568Z,81.80
2022-10-04T02:57:52.361Z,81.80
2022-10-04T02:59:24.868Z,81.80
2022-10-04T03:00:59.437Z,81.80
2022-10-04T03:02:31.296Z,82.00
2022-10-04T03:04:04.352Z,81.80
2022-10-04T03:05:36.929Z,82.00
2022-10-04T03:07:09.359Z,81.90
2022-10-04T03:08:44.044Z,81.80
2022-10-04T03:10:15.741Z,81.90
2022-10-04T03:11:49.724Z,82.00
2022-10-04T03:13:21.757Z,82.00
2022-10-04T03:14:54.837Z,82.00
2022-10-04T03:16:26.993Z,81.90
2022-10-04T03:18:00.100Z,81.90
2022-10-04T03:19:33.304Z,81.90
2022-10-04T03:21:12.370Z,81.90
2022-10-04T03:22:47.022Z,81.80
2022-10-04T03:24:30.827Z,81.90
2022-10-04T03:26:33.908Z,81.70
2022-10-04T03:28:05.662Z,81.90
2022-10-04T03:29:42.676Z,81.70
2022-10-04T03:31:15.852Z,81.60
2022-10-04T03:32:49.106Z,81.70
2022-10-04T03:34:28.089Z,81.70
2022-10-04T03:36:00.973Z,81.60
2022-10-04T03:37:36.506Z,81.70
2022-10-04T03:39:11.004Z,81.80
2022-10-04T03:40:52.830Z,81.70
2022-10-04T03:42:28.599Z,81.90
2022-10-04T03:44:04.858Z,81.80
2022-10-04T03:45:37.082Z,81.80
2022-10-04T03:47:19.218Z,81.70
2022-10-04T03:48:53.372Z,81.60
2022-10-04T03:50:29.148Z,81.70
2022-10-04T03:52:02.131Z,81.70
2022-10-04T03:53:43.922Z,81.70
2022-10-04T03:55:17.300Z,81.70
2022-10-04T03:56:50.815Z,81.60
2022-10-04T03:58:25.477Z,81.70
2022-10-04T03:59:58.878Z,81.70
2022-10-04T04:02:11.069Z,81.70
2022-10-04T04:04:04.280Z,81.70
2022-10-04T04:05:50.905Z,81.70
2022-10-04T04:07:33.005Z,81.70
2022-10-04T04:09:06.500Z,81.60
2022-10-04T04:10:46.356Z,81.80
2022-10-04T04:12:40.486Z,81.60
2022-10-04T04:14:14.644Z,81.70
2022-10-04T04:15:48.042Z,81.50
2022-10-04T04:17:25.827Z,81.70
2022-10-04T04:19:02.022Z,81.70
2022-10-04T04:20:33.749Z,81.60
2022-10-04T04:22:05.453Z,81.60
2022-10-04T04:23:41.514Z,81.60
2022-10-04T04:25:15.980Z,81.70
2022-10-04T04:26:53.437Z,81.50
2022-10-04T04:28:44.769Z,81.60
2022-10-04T04:30:18.497Z,81.70
2022-10-04T04:31:59.749Z,81.50
2022-10-04T04:33:42.334Z,81.60
2022-10-04T04:35:32.481Z,81.50
2022-10-04T04:37:05.090Z,81.50
2022-10-04T04:38:56.842Z,81.50
2022-10-04T04:40:28.462Z,81.60
2022-10-04T04:42:21.159Z,81.50
2022-10-04T04:43:52.899Z,81.50
2022-10-04T04:45:29.478Z,81.50
2022-10-04T04:47:01.285Z,81.40
2022-10-04T04:48:34.263Z,81.50
2022-10-04T04:50:13.610Z,81.50
2022-10-04T04:51:51.265Z,81.70
2022-10-04T04:53:27.000Z,81.40
2022-10-04T04:54:58.818Z,81.60
2022-10-04T04:56:30.953Z,81.50
2022-10-04T04:58:04.561Z,81.40
2022-10-04T04:59:37.038Z,81.50
2022-10-04T05:01:25.740Z,81.50
2022-10-04T05:03:00.386Z,81.50
2022-10-04T05:04:32.019Z,81.40
2022-10-04T05:06:04.851Z,81.40
2022-10-04T05:07:36.743Z,81.40
2022-10-04T05:09:27.870Z,81.50
2022-10-04T05:11:08.496Z,81.40
2022-10-04T05:12:40.187Z,81.20
2022-10-04T05:14:15.659Z,81.30
2022-10-04T05:15:52.272Z,81.40
2022-10-04T05:17:33.563Z,81.40
2022-10-04T05:19:22.225Z,81.40
2022-10-04T05:20:55.510Z,81.50
2022-10-04T05:22:28.636Z,81.30
2022-10-04T05:24:13.564Z,81.40
2022-10-04T05:25:45.605Z,81.40
2022-10-04T05:27:21.922Z,81.40
2022-10-04T05:28:55.159Z,81.30
2022-10-04T05:30:37.962Z,81.20
2022-10-04T05:32:41.549Z,81.40
2022-10-04T05:34:28.935Z,81.30
2022-10-04T05:36:10.872Z,81.20
2022-10-04T05:38:14.949Z,81.30
2022-10-04T05:40:15.837Z,81.10
2022-10-04T05:42:25.283Z,81.20
2022-10-04T05:43:56.988Z,81.20
2022-10-04T05:45:30.749Z,81.20
2022-10-04T05:47:07.354Z,81.20
2022-10-04T05:48:41.359Z,81.30
2022-10-04T05:50:25.924Z,81.20
2022-10-04T05:52:05.838Z,81.10
2022-10-04T05:53:38.075Z,81.10
2022-10-04T05:55:12.877Z,81.10
2022-10-04T05:57:22.046Z,81.00
2022-10-04T05:59:25.971Z,81.00
2022-10-04T06:01:24.758Z,81.10
2022-10-04T06:03:27.539Z,81.20
2022-10-04T06:05:15.707Z,81.10
2022-10-04T06:07:04.112Z,81.10
2022-10-04T06:08:47.757Z,81.00
2022-10-04T06:10:48.097Z,81.20
2022-10-04T06:12:30.191Z,81.10
2022-10-04T06:14:16.905Z,80.90
2022-10-04T06:16:12.210Z,81.00
2022-10-04T06:17:49.442Z,81.20
2022-10-04T06:19:53.042Z,80.90
2022-10-04T06:21:27.581Z,81.00
2022-10-04T06:23:02.017Z,81.10
2022-10-04T06:24:37.581Z,81.20
2022-10-04T06:26:21.569Z,81.20
2022-10-04T06:28:19.476Z,81.30
2022-10-04T06:30:14.266Z,81.20
2022-10-04T06:31:48.710Z,81.40
2022-10-04T06:33:48.473Z,81.30
2022-10-04T06:35:39.873Z,81.30
2022-10-04T06:37:29.234Z,81.10
2022-10-04T06:39:10.592Z,81.30
2022-10-04T06:40:52.492Z,81.40
2022-10-04T06:42:39.670Z,81.20
2022-10-04T06:45:00.805Z,81.20
2022-10-04T06:46:47.351Z,81.50
2022-10-04T06:48:25.125Z,81.70
2022-10-04T06:50:17.528Z,81.30
2022-10-04T06:51:56.820Z,81.30
2022-10-04T06:53:37.589Z,81.50
2022-10-04T06:55:41.309Z,81.60
2022-10-04T06:57:40.154Z,81.40
2022-10-04T06:59:39.686Z,81.30
2022-10-04T07:01:26.808Z,81.50
2022-10-04T07:03:14.383Z,81.50
2022-10-04T07:05:13.263Z,82.00
2022-10-04T07:07:24.964Z,81.60
2022-10-04T07:09:02.427Z,81.80
2022-10-04T07:10:50.562Z,81.70
2022-10-04T07:12:23.606Z,81.70
2022-10-04T07:14:12.327Z,82.00
2022-10-04T07:15:51.046Z,81.80
2022-10-04T07:17:43.221Z,81.80
2022-10-04T07:19:15.174Z,81.80
2022-10-04T07:20:49.027Z,82.40
2022-10-04T07:22:38.327Z,82.10
2022-10-04T07:24:13.218Z,81.80
2022-10-04T07:25:50.522Z,82.10
2022-10-04T07:27:26.990Z,82.00
2022-10-04T07:29:36.736Z,82.20
2022-10-04T07:31:20.611Z,82.10
2022-10-04T07:32:55.717Z,82.00
2022-10-04T07:34:30.675Z,82.30
2022-10-04T07:36:23.138Z,82.30
2022-10-04T07:38:00.150Z,82.10
2022-10-04T07:39:54.853Z,82.10
2022-10-04T07:41:49.905Z,82.10
2022-10-04T07:43:28.153Z,82.10
2022-10-04T07:45:26.812Z,82.20
2022-10-04T07:47:18.775Z,82.30
2022-10-04T07:48:50.715Z,82.30
2022-10-04T07:50:41.705Z,82.30
2022-10-04T07:52:19.218Z,82.20
2022-10-04T07:54:17.802Z,82.30
2022-10-04T07:55:57.334Z,82.30
2022-10-04T07:57:57.662Z,82.60
2022-10-04T08:00:07.196Z,82.40
2022-10-04T08:01:54.471Z,82.40
2022-10-04T08:03:44.933Z,82.50
2022-10-04T08:05:20.722Z,82.40
2022-10-04T08:07:02.211Z,82.70
2022-10-04T08:08:39.823Z,82.60
2022-10-04T08:10:20.189Z,82.80
2022-10-04T08:12:13.347Z,82.70
2022-10-04T08:13:54.371Z,82.60
2022-10-04T08:15:39.091Z,82.70
2022-10-04T08:17:15.803Z,82.80
2022-10-04T08:19:07.274Z,82.90
2022-10-04T08:20:50.024Z,82.80
2022-10-04T08:22:31.312Z,82.90
2022-10-04T08:24:26.175Z,82.90
2022-10-04T08:26:23.212Z,83.00
2022-10-04T08:28:22.669Z,83.00
2022-10-04T08:30:17.936Z,83.20
2022-10-04T08:32:05.570Z,83.20
2022-10-04T08:33:43.013Z,83.40
2022-10-04T08:35:36.059Z,83.50
2022-10-04T08:37:27.356Z,83.60
2022-10-04T08:39:01.048Z,83.70
2022-10-04T08:40:51.284Z,83.80
2022-10-04T08:42:55.524Z,83.90
2022-10-04T08:44:56.998Z,83.80
2022-10-04T08:46:34.488Z,84.00
2022-10-04T08:48:32.892Z,84.20
2022-10-04T08:50:23.563Z,84.60
2022-10-04T08:52:20.181Z,84.80
2022-10-04T08:54:35.769Z,84.50
2022-10-04T08:56:36.177Z,84.80
2022-10-04T08:58:15.822Z,84.90
2022-10-04T09:00:06.861Z,85.00
2022-10-04T09:02:12.473Z,85.00
2022-10-04T09:04:15.875Z,84.90
2022-10-04T09:06:15.137Z,84.80
2022-10-04T09:08:24.069Z,84.80
2022-10-04T09:10:47.731Z,85.00
2022-10-04T09:12:31.133Z,85.40
2022-10-04T09:14:23.388Z,85.30
2022-10-04T09:16:06.108Z,85.30
2022-10-04T09:17:56.448Z,85.40
2022-10-04T09:20:33.401Z,85.60
2022-10-04T09:22:19.196Z,85.80
2022-10-04T09:24:32.544Z,85.70
2022-10-04T09:26:06.995Z,85.70
2022-10-04T09:28:15.225Z,85.80
2022-10-04T09:29:55.629Z,85.90
2022-10-04T09:31:58.897Z,85.90
2022-10-04T09:33:48.727Z,86.00
2022-10-04T09:35:55.477Z,86.00
2022-10-04T09:37:50.557Z,85.90
2022-10-04T09:39:41.081Z,86.00
2022-10-04T09:41:39.718Z,86.10
2022-10-04T09:43:29.016Z,86.10
2022-10-04T09:45:35.016Z,86.20
2022-10-04T09:47:17.228Z,86.40
2022-10-04T09:49:24.297Z,86.40
2022-10-04T09:51:32.609Z,86.30
2022-10-04T09:53:46.470Z,86.40
2022-10-04T09:55:56.367Z,86.70
2022-10-04T09:57:45.460Z,86.70
2022-10-04T09:59:25.147Z,86.80
2022-10-04T10:01:18.066Z,86.90
2022-10-04T10:03:16.267Z,86.80
2022-10-04T10:04:53.889Z,86.70
2022-10-04T10:06:30.999Z,86.80
2022-10-04T10:08:26.083Z,86.70
2022-10-04T10:10:58.171Z,86.60
2022-10-04T10:13:07.124Z,86.90
2022-10-04T10:15:22.571Z,86.70
2022-10-04T10:17:10.469Z,86.60
2022-10-04T10:19:16.842Z,86.50
2022-10-04T10:20:48.431Z,86.70
2022-10-04T10:22:53.586Z,86.70
2022-10-04T10:24:29.962Z,86.70
2022-10-04T10:26:36.634Z,86.50
2022-10-04T10:28:35.974Z,86.60
2022-10-04T10:30:20.490Z,86.70
2022-10-04T10:32:18.770Z,86.70
2022-10-04T10:34:27.194Z,86.70
2022-10-04T10:36:21.332Z,86.80
2022-10-04T10:38:25.071Z,86.70
2022-10-04T10:40:07.864Z,86.70
2022-10-04T10:41:51.823Z,86.70
2022-10-04T10:43:42.084Z,86.90
2022-10-04T10:45:19.719Z,86.90
2022-10-04T10:47:08.383Z,87.00
2022-10-04T10:48:57.540Z,87.00
2022-10-04T10:51:03.303Z,87.00
2022-10-04T10:53:07.467Z,87.00
2022-10-04T10:55:07.712Z,87.00
2022-10-04T10:57:10.160Z,87.10
2022-10-04T10:59:01.619Z,87.00
2022-10-04T11:00:41.196Z,87.10
2022-10-04T11:02:49.882Z,87.10
2022-10-04T11:04:52.049Z,86.90
2022-10-04T11:07:06.251Z,86.90
2022-10-04T11:09:19.960Z,86.90
2022-10-04T11:11:13.773Z,86.80
2022-10-04T11:13:06.561Z,86.70
2022-10-04T11:14:50.452Z,86.90
2022-10-04T11:16:52.527Z,86.80
2022-10-04T11:18:49.257Z,86.90
2022-10-04T11:20:31.916Z,86.70
2022-10-04T11:22:19.624Z,86.70
2022-10-04T11:24:26.040Z,86.60
2022-10-04T11:26:25.054Z,86.60
2022-10-04T11:28:18.813Z,86.50
2022-10-04T11:30:13.752Z,86.30
2022-10-04T11:32:00.029Z,86.30
2022-10-04T11:33:58.093Z,86.30
2022-10-04T11:35:30.056Z,86.40
2022-10-04T11:37:17.805Z,86.30
2022-10-04T11:39:16.267Z,86.40
2022-10-04T11:41:16.520Z,86.60
2022-10-04T11:43:11.321Z,86.50
2022-10-04T11:45:13.380Z,86.60
2022-10-04T11:47:15.871Z,86.60
2022-10-04T11:49:08.221Z,86.60
2022-10-04T11:50:56.454Z,86.60
2022-10-04T11:52:57.536Z,86.60
2022-10-04T11:54:47.752Z,86.50
2022-10-04T11:56:37.028Z,86.60
2022-10-04T11:58:43.888Z,86.80
2022-10-04T12:00:24.040Z,86.90
2022-10-04T12:02:16.239Z,87.00
2022-10-04T12:04:29.644Z,86.90
2022-10-04T12:06:39.960Z,86.80
2022-10-04T12:08:20.942Z,86.70
2022-10-04T12:10:10.352Z,86.70
2022-10-04T12:12:31.317Z,86.70
2022-10-04T12:14:24.701Z,86.60
2022-10-04T12:16:29.743Z,86.70
2022-10-04T12:18:07.197Z,86.70
2022-10-04T12:20:02.249Z,86.70
2022-10-04T12:21:52.597Z,86.60
2022-10-04T12:24:04.343Z,86.60
2022-10-04T12:26:01.894Z,86.70
2022-10-04T12:28:01.202Z,86.60
2022-10-04T12:30:02.558Z,86.50
2022-10-04T12:31:49.570Z,86.60
2022-10-04T12:33:30.943Z,86.60
2022-10-04T12:35:14.601Z,86.50
2022-10-04T12:36:49.458Z,86.50
2022-10-04T12:38:26.297Z,86.60
2022-10-04T12:40:11.858Z,86.50
2022-10-04T12:42:32.786Z,86.40
2022-10-04T12:44:26.942Z,86.10
2022-10-04T12:46:15.312Z,86.10
2022-10-04T12:48:19.061Z,86.10
2022-10-04T12:49:56.842Z,85.50
2022-10-04T12:51:37.185Z,85.30
2022-10-04T12:53:31.936Z,85.20
2022-10-04T12:55:43.094Z,85.00
2022-10-04T12:57:33.350Z,85.00
2022-10-04T12:59:29.483Z,85.00
2022-10-04T13:01:19.243Z,84.90
2022-10-04T13:03:34.680Z,84.80
2022-10-04T13:05:30.862Z,84.70
2022-10-04T13:07:23.837Z,84.60
2022-10-04T13:09:13.975Z,84.40
2022-10-04T13:11:09.622Z,84.30
2022-10-04T13:13:17.989Z,84.30
2022-10-04T13:14:55.592Z,84.10
2022-10-04T13:18:53.848Z,83.70
2022-10-04T13:20:59.311Z,83.40
2022-10-04T13:22:58.711Z,83.20
2022-10-04T13:24:58.025Z,83.20
2022-10-04T13:26:49.633Z,82.90
2022-10-04T13:28:46.375Z,82.60
2022-10-04T13:30:32.407Z,82.60
2022-10-04T13:32:15.915Z,82.30
2022-10-04T13:34:16.562Z,82.40
2022-10-04T13:35:54.393Z,82.00
2022-10-04T13:37:41.596Z,81.90
2022-10-04T13:39:39.384Z,81.90
2022-10-04T13:41:38.855Z,81.90
2022-10-04T13:43:16.372Z,82.00
2022-10-04T13:45:00.025Z,82.00
2022-10-04T13:46:53.579Z,82.00
2022-10-04T13:48:31.260Z,81.90
2022-10-04T13:50:32.791Z,81.90
2022-10-04T13:52:35.038Z,81.60
2022-10-04T13:54:34.725Z,81.70
2022-10-04T13:56:28.190Z,81.70
2022-10-04T13:58:44.654Z,81.60
2022-10-04T14:00:37.343Z,81.60
2022-10-04T14:02:46.610Z,81.70
2022-10-04T14:04:47.683Z,81.80
2022-10-04T14:06:57.066Z,81.70
2022-10-04T14:08:49.906Z,81.80
2022-10-04T14:10:46.384Z,81.70
2022-10-04T14:12:44.903Z,81.70
2022-10-04T14:14:52.138Z,81.70
2022-10-04T14:16:42.014Z,81.80
2022-10-04T14:18:44.168Z,81.80
2022-10-04T14:20:43.750Z,81.80
2022-10-04T14:22:56.584Z,81.80
2022-10-04T14:24:55.709Z,81.70
2022-10-04T14:26:49.383Z,81.60
2022-10-04T14:28:54.543Z,81.40
2022-10-04T14:30:39.526Z,81.30
2022-10-04T14:32:49.301Z,81.30
2022-10-04T14:34:56.933Z,81.40
2022-10-04T14:36:56.974Z,81.30
2022-10-04T14:38:38.849Z,81.20
2022-10-04T14:40:41.134Z,81.20
2022-10-04T14:42:45.078Z,81.20
2022-10-04T14:44:45.907Z,81.20
2022-10-04T14:46:26.595Z,81.00
2022-10-04T14:48:31.750Z,81.00
2022-10-04T14:50:49.430Z,81.00
2022-10-04T14:52:43.973Z,81.10
2022-10-04T14:54:29.014Z,81.00
2022-10-04T14:56:01.025Z,81.00
2022-10-04T14:57:54.010Z,81.00
2022-10-04T14:59:44.395Z,81.00
2022-10-04T15:01:25.177Z,80.90
2022-10-04T15:03:13.371Z,81.00
2022-10-04T15:05:31.118Z,81.10
2022-10-04T15:07:18.813Z,81.10
2022-10-04T15:09:00.162Z,81.00
2022-10-04T15:10:38.242Z,81.00
2022-10-04T15:13:09.351Z,81.20
2022-10-04T15:14:37.978Z,81.20
2022-10-04T15:16:52.988Z,81.20
2022-10-04T15:18:39.696Z,81.20
2022-10-04T15:20:22.845Z,81.30
2022-10-04T15:22:07.136Z,81.30
2022-10-04T15:23:53.299Z,81.30
2022-10-04T15:25:37.144Z,81.30
2022-10-04T15:27:32.833Z,81.30
2022-10-04T15:29:41.053Z,81.30
2022-10-04T15:31:15.744Z,81.10
2022-10-04T15:33:13.714Z,81.10
2022-10-04T15:34:48.851Z,81.20
2022-10-04T15:37:00.111Z,81.20
2022-10-04T15:38:40.127Z,81.30
2022-10-04T15:40:24.128Z,81.30
2022-10-04T15:42:21.443Z,81.30
2022-10-04T15:44:11.631Z,81.30
2022-10-04T15:46:05.239Z,81.40
2022-10-04T15:48:23.460Z,81.40
2022-10-04T15:50:21.543Z,81.50
2022-10-04T15:52:37.267Z,81.50
2022-10-04T15:54:30.488Z,81.60
2022-10-04T15:56:33.086Z,81.60
2022-10-04T15:58:15.836Z,81.70
2022-10-04T16:00:23.791Z,81.80
2022-10-04T16:02:25.602Z,81.90
2022-10-04T16:04:24.680Z,81.90
2022-10-04T16:06:06.264Z,82.00
2022-10-04T16:08:10.990Z,82.00
2022-10-04T16:09:46.843Z,82.00
2022-10-04T16:11:46.139Z,82.10
2022-10-04T16:13:28.284Z,82.20
2022-10-04T16:15:20.692Z,82.30
2022-10-04T16:17:10.693Z,82.40
2022-10-04T16:18:51.256Z,82.50
2022-10-04T16:20:34.098Z,82.60
2022-10-04T16:22:15.755Z,82.60
2022-10-04T16:23:48.063Z,82.70
2022-10-04T16:25:25.566Z,82.80
2022-10-04T16:26:57.156Z,82.90
2022-10-04T16:28:49.869Z,82.90
2022-10-04T16:30:36.252Z,83.00
2022-10-04T16:32:30.916Z,83.10
2022-10-04T16:34:14.713Z,83.20
2022-10-04T16:36:01.795Z,83.20
2022-10-04T16:37:45.004Z,83.30
2022-10-04T16:39:57.441Z,83.50
2022-10-04T16:41:54.393Z,83.60
2022-10-04T16:43:33.128Z,83.60
2022-10-04T16:45:08.059Z,83.70
2022-10-04T16:46:46.258Z,83.80
2022-10-04T16:48:24.640Z,83.80
2022-10-04T16:49:59.133Z,83.90
2022-10-04T16:51:48.135Z,83.90
2022-10-04T16:53:48.610Z,84.00
2022-10-04T16:55:46.248Z,84.10
2022-10-04T16:57:22.789Z,84.10
2022-10-04T16:59:13.117Z,84.20
2022-10-04T17:00:46.717Z,84.30
2022-10-04T17:02:53.898Z,84.30
2022-10-04T17:04:41.725Z,84.30
2022-10-04T17:06:15.471Z,84.40
2022-10-04T17:08:05.323Z,84.30
2022-10-04T17:09:47.399Z,84.30
2022-10-04T17:11:45.234Z,84.30
2022-10-04T17:13:56.875Z,84.30
2022-10-04T17:15:31.878Z,84.20
2022-10-04T17:17:35.879Z,84.10
2022-10-04T17:19:29.062Z,83.90
2022-10-04T17:21:06.260Z,83.80
2022-10-04T17:22:59.009Z,83.70
2022-10-04T17:24:33.707Z,83.70
2022-10-04T17:26:44.552Z,83.50
2022-10-04T17:28:49.712Z,83.40
2022-10-04T17:30:27.590Z,83.30
2022-10-04T17:32:17.481Z,83.30
2022-10-04T17:34:11.395Z,83.20
2022-10-04T17:35:58.803Z,83.10
2022-10-04T17:37:47.238Z,83.10
2022-10-04T17:39:46.657Z,83.00
2022-10-04T17:41:31.730Z,83.00
2022-10-04T17:43:45.899Z,83.00
2022-10-04T17:45:36.459Z,82.90
2022-10-04T17:47:21.446Z,82.90
2022-10-04T17:49:18.695Z,83.00
2022-10-04T20:28:43.512Z,84.10
2022-10-04T20:30:16.554Z,84.10
2022-10-04T20:31:54.679Z,84.00
2022-10-04T20:33:45.531Z,83.60
2022-10-04T20:35:55.675Z,83.60
2022-10-04T20:38:19.885Z,83.00
2022-10-04T20:39:56.454Z,83.20
2022-10-04T20:41:28.436Z,83.20
2022-10-04T20:43:15.375Z,83.40
2022-10-04T20:45:09.675Z,83.30
2022-10-04T20:46:50.895Z,83.50
2022-10-04T20:48:27.914Z,83.70
2022-10-04T20:50:01.662Z,83.60
2022-10-04T20:51:33.370Z,83.10
2022-10-04T20:53:33.508Z,83.30
2022-10-04T20:55:27.152Z,83.30
2022-10-04T20:56:58.857Z,83.70
2022-10-04T20:58:34.926Z,83.20
2022-10-04T21:00:17.950Z,83.10
2022-10-04T21:02:08.608Z,83.10
2022-10-04T21:03:40.424Z,83.10
2022-10-04T21:05:26.314Z,83.60
2022-10-04T21:06:59.977Z,83.40
2022-10-04T21:08:32.228Z,83.20
2022-10-04T21:10:21.953Z,83.60
2022-10-04T21:11:56.136Z,83.30
2022-10-04T21:13:49.401Z,83.30
2022-10-04T21:15:22.513Z,83.30
2022-10-04T21:17:14.888Z,82.40
2022-10-04T21:18:46.650Z,82.40
2022-10-04T21:20:50.183Z,82.80
2022-10-04T21:22:30.824Z,82.80
2022-10-04T21:24:37.581Z,83.00
2022-10-04T21:26:20.184Z,83.30
2022-10-04T21:27:51.939Z,82.90
2022-10-04T21:29:23.690Z,83.10
2022-10-04T21:30:55.458Z,83.20
2022-10-04T21:32:32.309Z,82.30
2022-10-04T21:34:03.989Z,82.40
2022-10-04T21:35:35.694Z,83.00
2022-10-04T21:37:07.480Z,83.20
2022-10-04T21:38:39.233Z,82.00
2022-10-04T21:40:13.036Z,82.80
2022-10-04T21:41:45.059Z,82.00
2022-10-04T21:43:16.728Z,81.90
2022-10-04T21:44:48.830Z,81.60
2022-10-04T21:46:20.939Z,82.00
2022-10-04T21:47:52.682Z,81.40
2022-10-04T21:49:24.479Z,82.40
2022-10-04T21:50:56.201Z,81.20
2022-10-04T21:52:27.917Z,81.10
2022-10-04T21:53:59.684Z,81.20
2022-10-04T21:55:31.434Z,81.30
2022-10-04T21:57:03.116Z,81.40
2022-10-04T21:58:34.754Z,81.60
2022-10-04T22:00:07.337Z,80.90
2022-10-04T22:01:43.935Z,82.00
2022-10-04T22:03:15.594Z,83.10
2022-10-04T22:04:47.282Z,83.10
2022-10-04T22:06:18.946Z,81.60
2022-10-04T22:07:50.622Z,81.80
2022-10-04T22:09:22.293Z,82.90
2022-10-04T22:10:57.597Z,82.70
2022-10-04T22:12:29.557Z,82.80
2022-10-04T22:14:01.633Z,81.40
2022-10-04T22:15:33.286Z,81.60
2022-10-04T22:17:05.109Z,81.50
2022-10-04T22:18:37.002Z,82.50
2022-10-04T22:20:09.107Z,81.70
2022-10-04T22:21:40.767Z,80.90
2022-10-04T22:23:23.943Z,80.90
2022-10-04T22:24:55.562Z,81.20
2022-10-04T22:26:28.167Z,82.50
2022-10-04T22:28:00.113Z,82.10
2022-10-04T22:29:34.721Z,81.30
2022-10-04T22:31:21.295Z,80.80
2022-10-04T22:32:58.112Z,80.70
2022-10-04T22:34:31.270Z,81.00
2022-10-04T22:36:16.059Z,80.80
2022-10-04T22:37:48.968Z,80.50
2022-10-04T22:39:21.474Z,80.70
2022-10-04T22:40:53.563Z,80.70
2022-10-04T22:42:30.244Z,80.50
2022-10-04T22:44:21.373Z,80.70
2022-10-04T22:45:54.653Z,81.20
2022-10-04T22:47:26.601Z,81.40
2022-10-04T22:48:58.236Z,80.90
2022-10-04T22:50:38.057Z,80.60
2022-10-04T22:52:21.493Z,80.70
2022-10-04T22:53:53.160Z,80.70
2022-10-04T22:55:25.056Z,80.70
2022-10-04T22:56:57.236Z,81.00
2022-10-04T22:58:28.866Z,80.70
2022-10-04T23:00:01.176Z,80.70
2022-10-04T23:01:32.834Z,80.50
2022-10-04T23:03:15.033Z,80.70
2022-10-04T23:04:52.461Z,81.00
2022-10-04T23:06:24.129Z,80.70
2022-10-04T23:07:55.806Z,80.50
2022-10-04T23:09:27.429Z,80.50
2022-10-04T23:11:00.491Z,80.60
2022-10-04T23:12:32.115Z,80.60
2022-10-04T23:14:03.875Z,80.70
2022-10-04T23:15:35.612Z,80.80
2022-10-04T23:17:25.387Z,80.70
2022-10-04T23:19:09.671Z,80.80
2022-10-04T23:20:41.779Z,80.70
2022-10-04T23:22:22.227Z,81.00
2022-10-04T23:23:53.967Z,80.70
2022-10-04T23:25:29.929Z,80.80
2022-10-04T23:27:03.705Z,81.10
2022-10-04T23:28:37.021Z,80.60
2022-10-04T23:30:18.699Z,80.80
2022-10-04T23:31:51.438Z,80.70
2022-10-04T23:33:23.888Z,80.80
2022-10-04T23:34:56.823Z,80.90
2022-10-04T23:36:28.840Z,80.90
2022-10-04T23:38:03.524Z,81.00
2022-10-04T23:39:35.977Z,80.90
2022-10-04T23:41:11.890Z,80.90
2022-10-04T23:42:45.826Z,81.00
2022-10-04T23:44:17.574Z,80.90
2022-10-04T23:45:49.293Z,80.90
2022-10-04T23:47:23.138Z,80.90
2022-10-04T23:48:54.757Z,81.10
2022-10-04T23:50:34.076Z,81.10
2022-10-04T23:52:14.167Z,81.10
2022-10-04T23:53:48.951Z,81.20
2022-10-04T23:55:23.793Z,80.90
2022-10-04T23:56:55.411Z,81.00
2022-10-04T23:58:32.334Z,81.00
